sensor_id;sensor_type;location;lat;lon;timestamp;P1;durP1;ratioP1;P2;durP2;ratioP2
58918;SDS011;44704;50.122;19.932;2022-11-25T00:01:12;50.00;;;27.00;;
58918;SDS011;44704;50.122;19.932;2022-11-25T00:03:42;49.60;;;27.60;;
58918;SDS011;44704;50.122;19.932;2022-11-25T00:06:31;52.30;;;28.30;;
58918;SDS011;44704;50.122;19.932;2022-11-25T00:09:05;54.20;;;28.10;;
58918;SDS011;44704;50.122;19.932;2022-11-25T00:11:35;53.90;;;27.30;;
58918;SDS011;44704;50.122;19.932;2022-11-25T00:14:07;58.80;;;29.30;;
58918;SDS011;44704;50.122;19.932;2022-11-25T00:16:37;53.10;;;27.70;;
58918;SDS011;44704;50.122;19.932;2022-11-25T00:19:04;54.80;;;28.30;;
58918;SDS011;44704;50.122;19.932;2022-11-25T00:21:32;59.30;;;30.60;;
58918;SDS011;44704;50.122;19.932;2022-11-25T00:24:01;60.70;;;30.40;;
58918;SDS011;44704;50.122;19.932;2022-11-25T00:26:30;63.30;;;30.00;;
58918;SDS011;44704;50.122;19.932;2022-11-25T00:28:59;62.70;;;31.90;;
58918;SDS011;44704;50.122;19.932;2022-11-25T00:31:28;61.50;;;30.40;;
58918;SDS011;44704;50.122;19.932;2022-11-25T00:33:57;58.10;;;30.10;;
58918;SDS011;44704;50.122;19.932;2022-11-25T00:36:26;70.00;;;34.10;;
58918;SDS011;44704;50.122;19.932;2022-11-25T00:38:55;64.50;;;31.80;;
58918;SDS011;44704;50.122;19.932;2022-11-25T00:41:27;66.60;;;32.50;;
58918;SDS011;44704;50.122;19.932;2022-11-25T00:44:16;67.10;;;32.00;;
58918;SDS011;44704;50.122;19.932;2022-11-25T00:49:37;63.40;;;32.40;;
58918;SDS011;44704;50.122;19.932;2022-11-25T00:52:06;69.90;;;33.60;;
58918;SDS011;44704;50.122;19.932;2022-11-25T00:54:34;71.40;;;34.20;;
58918;SDS011;44704;50.122;19.932;2022-11-25T00:57:01;74.00;;;34.20;;
58918;SDS011;44704;50.122;19.932;2022-11-25T00:59:29;70.30;;;33.10;;
58918;SDS011;44704;50.122;19.932;2022-11-25T01:01:58;71.80;;;33.80;;
58918;SDS011;44704;50.122;19.932;2022-11-25T01:04:26;69.80;;;34.30;;
58918;SDS011;44704;50.122;19.932;2022-11-25T01:06:53;70.30;;;33.80;;
58918;SDS011;44704;50.122;19.932;2022-11-25T01:09:22;73.80;;;34.30;;
58918;SDS011;44704;50.122;19.932;2022-11-25T01:11:49;71.30;;;33.40;;
58918;SDS011;44704;50.122;19.932;2022-11-25T01:14:17;73.10;;;33.50;;
58918;SDS011;44704;50.122;19.932;2022-11-25T01:16:46;71.20;;;34.60;;
58918;SDS011;44704;50.122;19.932;2022-11-25T01:19:14;75.10;;;35.20;;
58918;SDS011;44704;50.122;19.932;2022-11-25T01:21:42;68.70;;;32.00;;
58918;SDS011;44704;50.122;19.932;2022-11-25T01:24:14;76.50;;;34.80;;
58918;SDS011;44704;50.122;19.932;2022-11-25T01:26:42;81.20;;;36.50;;
58918;SDS011;44704;50.122;19.932;2022-11-25T01:29:14;88.60;;;38.50;;
58918;SDS011;44704;50.122;19.932;2022-11-25T01:31:43;88.90;;;39.40;;
58918;SDS011;44704;50.122;19.932;2022-11-25T01:34:12;94.50;;;38.60;;
58918;SDS011;44704;50.122;19.932;2022-11-25T01:36:44;86.70;;;38.30;;
58918;SDS011;44704;50.122;19.932;2022-11-25T01:39:21;91.90;;;38.50;;
58918;SDS011;44704;50.122;19.932;2022-11-25T01:41:49;92.00;;;38.70;;
58918;SDS011;44704;50.122;19.932;2022-11-25T01:44:20;91.80;;;38.80;;
58918;SDS011;44704;50.122;19.932;2022-11-25T01:52:03;86.10;;;37.60;;
58918;SDS011;44704;50.122;19.932;2022-11-25T01:54:39;88.80;;;37.10;;
58918;SDS011;44704;50.122;19.932;2022-11-25T01:57:13;84.50;;;36.30;;
58918;SDS011;44704;50.122;19.932;2022-11-25T01:59:48;84.00;;;36.50;;
58918;SDS011;44704;50.122;19.932;2022-11-25T02:02:18;85.10;;;37.00;;
58918;SDS011;44704;50.122;19.932;2022-11-25T02:04:46;77.90;;;35.90;;
58918;SDS011;44704;50.122;19.932;2022-11-25T02:07:19;77.70;;;34.70;;
58918;SDS011;44704;50.122;19.932;2022-11-25T02:09:56;72.00;;;35.90;;
58918;SDS011;44704;50.122;19.932;2022-11-25T02:12:25;77.50;;;36.40;;
58918;SDS011;44704;50.122;19.932;2022-11-25T02:14:57;76.60;;;36.60;;
58918;SDS011;44704;50.122;19.932;2022-11-25T02:17:25;89.50;;;40.60;;
58918;SDS011;44704;50.122;19.932;2022-11-25T02:22:43;96.70;;;41.00;;
58918;SDS011;44704;50.122;19.932;2022-11-25T02:25:33;94.20;;;39.40;;
58918;SDS011;44704;50.122;19.932;2022-11-25T02:28:04;91.50;;;38.70;;
58918;SDS011;44704;50.122;19.932;2022-11-25T02:30:32;84.70;;;38.40;;
58918;SDS011;44704;50.122;19.932;2022-11-25T02:32:59;87.10;;;38.70;;
58918;SDS011;44704;50.122;19.932;2022-11-25T02:38:02;78.20;;;39.20;;
58918;SDS011;44704;50.122;19.932;2022-11-25T02:40:55;82.60;;;37.90;;
58918;SDS011;44704;50.122;19.932;2022-11-25T02:43:24;77.70;;;35.90;;
58918;SDS011;44704;50.122;19.932;2022-11-25T02:46:00;92.70;;;41.00;;
58918;SDS011;44704;50.122;19.932;2022-11-25T02:48:32;95.00;;;41.70;;
58918;SDS011;44704;50.122;19.932;2022-11-25T02:53:30;90.70;;;37.90;;
58918;SDS011;44704;50.122;19.932;2022-11-25T02:55:57;84.60;;;38.80;;
58918;SDS011;44704;50.122;19.932;2022-11-25T02:58:24;90.10;;;39.80;;
58918;SDS011;44704;50.122;19.932;2022-11-25T03:00:53;92.40;;;41.50;;
58918;SDS011;44704;50.122;19.932;2022-11-25T03:03:20;97.60;;;41.20;;
58918;SDS011;44704;50.122;19.932;2022-11-25T03:05:47;102.30;;;42.00;;
58918;SDS011;44704;50.122;19.932;2022-11-25T03:08:14;87.80;;;39.40;;
58918;SDS011;44704;50.122;19.932;2022-11-25T03:10:44;104.20;;;42.30;;
58918;SDS011;44704;50.122;19.932;2022-11-25T03:13:12;104.00;;;40.80;;
58918;SDS011;44704;50.122;19.932;2022-11-25T03:15:39;104.00;;;40.90;;
58918;SDS011;44704;50.122;19.932;2022-11-25T03:18:07;102.50;;;42.00;;
58918;SDS011;44704;50.122;19.932;2022-11-25T03:20:35;105.30;;;41.20;;
58918;SDS011;44704;50.122;19.932;2022-11-25T03:23:03;106.60;;;42.30;;
58918;SDS011;44704;50.122;19.932;2022-11-25T03:25:31;108.90;;;43.80;;
58918;SDS011;44704;50.122;19.932;2022-11-25T03:27:58;101.80;;;39.90;;
58918;SDS011;44704;50.122;19.932;2022-11-25T03:30:26;110.20;;;42.00;;
58918;SDS011;44704;50.122;19.932;2022-11-25T03:32:57;110.80;;;42.20;;
58918;SDS011;44704;50.122;19.932;2022-11-25T03:35:25;115.60;;;42.90;;
58918;SDS011;44704;50.122;19.932;2022-11-25T03:37:53;109.30;;;42.80;;
58918;SDS011;44704;50.122;19.932;2022-11-25T03:40:20;113.00;;;46.20;;
58918;SDS011;44704;50.122;19.932;2022-11-25T03:42:47;111.60;;;44.90;;
58918;SDS011;44704;50.122;19.932;2022-11-25T03:45:16;108.40;;;42.00;;
58918;SDS011;44704;50.122;19.932;2022-11-25T03:47:44;130.90;;;45.80;;
58918;SDS011;44704;50.122;19.932;2022-11-25T03:50:12;115.30;;;44.80;;
58918;SDS011;44704;50.122;19.932;2022-11-25T03:55:08;117.30;;;44.50;;
58918;SDS011;44704;50.122;19.932;2022-11-25T03:57:39;114.10;;;45.10;;
58918;SDS011;44704;50.122;19.932;2022-11-25T04:00:07;108.10;;;43.50;;
58918;SDS011;44704;50.122;19.932;2022-11-25T04:02:44;114.70;;;42.70;;
58918;SDS011;44704;50.122;19.932;2022-11-25T04:05:12;118.50;;;45.00;;
58918;SDS011;44704;50.122;19.932;2022-11-25T04:07:39;111.40;;;47.00;;
58918;SDS011;44704;50.122;19.932;2022-11-25T04:10:07;121.90;;;46.60;;
58918;SDS011;44704;50.122;19.932;2022-11-25T04:12:35;114.10;;;44.80;;
58918;SDS011;44704;50.122;19.932;2022-11-25T04:15:17;114.00;;;44.60;;
58918;SDS011;44704;50.122;19.932;2022-11-25T04:17:48;116.00;;;45.40;;
58918;SDS011;44704;50.122;19.932;2022-11-25T04:20:15;115.20;;;44.50;;
58918;SDS011;44704;50.122;19.932;2022-11-25T04:22:44;115.40;;;44.40;;
58918;SDS011;44704;50.122;19.932;2022-11-25T04:25:14;120.60;;;49.40;;
58918;SDS011;44704;50.122;19.932;2022-11-25T04:27:42;116.50;;;46.80;;
58918;SDS011;44704;50.122;19.932;2022-11-25T04:30:09;113.90;;;47.20;;
58918;SDS011;44704;50.122;19.932;2022-11-25T04:32:38;125.10;;;47.00;;
58918;SDS011;44704;50.122;19.932;2022-11-25T04:35:06;126.70;;;47.70;;
58918;SDS011;44704;50.122;19.932;2022-11-25T04:37:34;123.90;;;46.30;;
58918;SDS011;44704;50.122;19.932;2022-11-25T04:40:01;124.10;;;48.10;;
58918;SDS011;44704;50.122;19.932;2022-11-25T04:42:28;128.00;;;49.10;;
58918;SDS011;44704;50.122;19.932;2022-11-25T04:44:59;125.80;;;46.70;;
58918;SDS011;44704;50.122;19.932;2022-11-25T04:47:28;133.80;;;50.50;;
58918;SDS011;44704;50.122;19.932;2022-11-25T04:49:55;129.90;;;47.90;;
58918;SDS011;44704;50.122;19.932;2022-11-25T04:52:22;133.50;;;48.50;;
58918;SDS011;44704;50.122;19.932;2022-11-25T04:54:49;138.90;;;51.00;;
58918;SDS011;44704;50.122;19.932;2022-11-25T04:57:17;127.40;;;47.80;;
58918;SDS011;44704;50.122;19.932;2022-11-25T04:59:45;137.10;;;49.40;;
58918;SDS011;44704;50.122;19.932;2022-11-25T05:02:18;132.10;;;51.60;;
58918;SDS011;44704;50.122;19.932;2022-11-25T05:04:58;134.70;;;49.80;;
58918;SDS011;44704;50.122;19.932;2022-11-25T05:07:25;137.70;;;50.10;;
58918;SDS011;44704;50.122;19.932;2022-11-25T05:09:55;137.50;;;51.20;;
58918;SDS011;44704;50.122;19.932;2022-11-25T05:12:42;136.10;;;49.70;;
58918;SDS011;44704;50.122;19.932;2022-11-25T05:15:12;136.50;;;50.60;;
58918;SDS011;44704;50.122;19.932;2022-11-25T05:17:41;128.20;;;48.50;;
58918;SDS011;44704;50.122;19.932;2022-11-25T05:20:08;131.90;;;50.00;;
58918;SDS011;44704;50.122;19.932;2022-11-25T05:22:36;141.30;;;52.40;;
58918;SDS011;44704;50.122;19.932;2022-11-25T05:25:04;146.20;;;54.10;;
58918;SDS011;44704;50.122;19.932;2022-11-25T05:27:32;139.70;;;51.30;;
58918;SDS011;44704;50.122;19.932;2022-11-25T05:30:02;135.20;;;50.40;;
58918;SDS011;44704;50.122;19.932;2022-11-25T05:32:29;137.50;;;50.30;;
58918;SDS011;44704;50.122;19.932;2022-11-25T05:34:57;138.40;;;53.20;;
58918;SDS011;44704;50.122;19.932;2022-11-25T05:37:24;127.00;;;53.00;;
58918;SDS011;44704;50.122;19.932;2022-11-25T05:39:59;138.10;;;51.40;;
58918;SDS011;44704;50.122;19.932;2022-11-25T05:42:35;139.80;;;52.00;;
58918;SDS011;44704;50.122;19.932;2022-11-25T05:45:03;137.60;;;50.80;;
58918;SDS011;44704;50.122;19.932;2022-11-25T05:47:31;136.90;;;52.50;;
58918;SDS011;44704;50.122;19.932;2022-11-25T05:49:59;128.50;;;52.00;;
58918;SDS011;44704;50.122;19.932;2022-11-25T05:52:26;136.80;;;51.70;;
58918;SDS011;44704;50.122;19.932;2022-11-25T05:54:56;133.90;;;51.30;;
58918;SDS011;44704;50.122;19.932;2022-11-25T05:57:23;133.90;;;55.20;;
58918;SDS011;44704;50.122;19.932;2022-11-25T05:59:54;135.60;;;53.00;;
58918;SDS011;44704;50.122;19.932;2022-11-25T06:02:43;139.00;;;54.70;;
58918;SDS011;44704;50.122;19.932;2022-11-25T06:05:12;129.20;;;51.60;;
58918;SDS011;44704;50.122;19.932;2022-11-25T06:07:39;135.20;;;53.00;;
58918;SDS011;44704;50.122;19.932;2022-11-25T06:10:08;144.90;;;53.20;;
58918;SDS011;44704;50.122;19.932;2022-11-25T06:12:36;135.20;;;52.30;;
58918;SDS011;44704;50.122;19.932;2022-11-25T06:15:03;126.90;;;52.20;;
58918;SDS011;44704;50.122;19.932;2022-11-25T06:17:33;127.10;;;52.10;;
58918;SDS011;44704;50.122;19.932;2022-11-25T06:20:08;136.40;;;53.50;;
58918;SDS011;44704;50.122;19.932;2022-11-25T06:22:35;134.40;;;52.40;;
58918;SDS011;44704;50.122;19.932;2022-11-25T06:25:03;143.70;;;54.90;;
58918;SDS011;44704;50.122;19.932;2022-11-25T06:27:31;134.20;;;53.50;;
58918;SDS011;44704;50.122;19.932;2022-11-25T06:29:58;134.40;;;54.20;;
58918;SDS011;44704;50.122;19.932;2022-11-25T06:32:25;123.90;;;51.20;;
58918;SDS011;44704;50.122;19.932;2022-11-25T06:34:57;135.20;;;50.70;;
58918;SDS011;44704;50.122;19.932;2022-11-25T06:37:31;124.60;;;51.70;;
58918;SDS011;44704;50.122;19.932;2022-11-25T06:39:58;129.80;;;50.30;;
58918;SDS011;44704;50.122;19.932;2022-11-25T06:42:26;139.70;;;50.20;;
58918;SDS011;44704;50.122;19.932;2022-11-25T06:44:53;132.50;;;51.00;;
58918;SDS011;44704;50.122;19.932;2022-11-25T06:47:20;129.60;;;52.40;;
58918;SDS011;44704;50.122;19.932;2022-11-25T06:49:47;131.00;;;53.00;;
58918;SDS011;44704;50.122;19.932;2022-11-25T06:52:15;138.80;;;55.10;;
58918;SDS011;44704;50.122;19.932;2022-11-25T06:54:42;134.00;;;52.90;;
58918;SDS011;44704;50.122;19.932;2022-11-25T06:57:10;127.20;;;51.90;;
58918;SDS011;44704;50.122;19.932;2022-11-25T06:59:37;127.70;;;52.20;;
58918;SDS011;44704;50.122;19.932;2022-11-25T07:02:04;126.80;;;51.80;;
58918;SDS011;44704;50.122;19.932;2022-11-25T07:04:33;139.10;;;53.60;;
58918;SDS011;44704;50.122;19.932;2022-11-25T07:07:00;130.70;;;54.60;;
58918;SDS011;44704;50.122;19.932;2022-11-25T07:09:27;135.60;;;55.40;;
58918;SDS011;44704;50.122;19.932;2022-11-25T07:11:54;128.60;;;54.00;;
58918;SDS011;44704;50.122;19.932;2022-11-25T07:14:21;128.60;;;52.50;;
58918;SDS011;44704;50.122;19.932;2022-11-25T07:16:48;136.90;;;55.50;;
58918;SDS011;44704;50.122;19.932;2022-11-25T07:19:15;125.00;;;53.20;;
58918;SDS011;44704;50.122;19.932;2022-11-25T07:21:43;141.80;;;55.90;;
58918;SDS011;44704;50.122;19.932;2022-11-25T07:24:13;132.80;;;57.30;;
58918;SDS011;44704;50.122;19.932;2022-11-25T07:26:42;138.30;;;55.50;;
58918;SDS011;44704;50.122;19.932;2022-11-25T07:29:12;127.70;;;54.80;;
58918;SDS011;44704;50.122;19.932;2022-11-25T07:31:41;129.60;;;55.20;;
58918;SDS011;44704;50.122;19.932;2022-11-25T07:34:11;137.30;;;54.40;;
58918;SDS011;44704;50.122;19.932;2022-11-25T07:36:40;129.70;;;55.60;;
58918;SDS011;44704;50.122;19.932;2022-11-25T07:39:09;145.40;;;57.00;;
58918;SDS011;44704;50.122;19.932;2022-11-25T07:41:38;136.40;;;56.70;;
58918;SDS011;44704;50.122;19.932;2022-11-25T07:44:07;141.00;;;59.00;;
58918;SDS011;44704;50.122;19.932;2022-11-25T07:46:48;128.00;;;54.70;;
58918;SDS011;44704;50.122;19.932;2022-11-25T07:49:25;148.30;;;57.60;;
58918;SDS011;44704;50.122;19.932;2022-11-25T07:51:53;136.70;;;57.70;;
58918;SDS011;44704;50.122;19.932;2022-11-25T07:54:22;137.30;;;57.90;;
58918;SDS011;44704;50.122;19.932;2022-11-25T07:56:49;140.50;;;56.80;;
58918;SDS011;44704;50.122;19.932;2022-11-25T07:59:18;143.00;;;57.70;;
58918;SDS011;44704;50.122;19.932;2022-11-25T08:04:17;140.90;;;57.10;;
58918;SDS011;44704;50.122;19.932;2022-11-25T08:06:45;150.20;;;56.00;;
58918;SDS011;44704;50.122;19.932;2022-11-25T08:09:13;144.90;;;56.80;;
58918;SDS011;44704;50.122;19.932;2022-11-25T08:11:46;147.60;;;57.30;;
58918;SDS011;44704;50.122;19.932;2022-11-25T08:14:14;149.70;;;57.30;;
58918;SDS011;44704;50.122;19.932;2022-11-25T08:16:42;141.40;;;56.70;;
58918;SDS011;44704;50.122;19.932;2022-11-25T08:19:11;139.50;;;57.10;;
58918;SDS011;44704;50.122;19.932;2022-11-25T08:21:40;133.60;;;54.20;;
58918;SDS011;44704;50.122;19.932;2022-11-25T08:24:14;124.70;;;51.60;;
58918;SDS011;44704;50.122;19.932;2022-11-25T08:26:43;121.10;;;53.20;;
58918;SDS011;44704;50.122;19.932;2022-11-25T08:29:15;127.70;;;50.40;;
58918;SDS011;44704;50.122;19.932;2022-11-25T08:31:43;122.60;;;52.00;;
58918;SDS011;44704;50.122;19.932;2022-11-25T08:34:15;122.80;;;51.90;;
58918;SDS011;44704;50.122;19.932;2022-11-25T08:36:47;128.60;;;54.00;;
58918;SDS011;44704;50.122;19.932;2022-11-25T08:39:15;128.60;;;54.90;;
58918;SDS011;44704;50.122;19.932;2022-11-25T08:41:42;118.70;;;50.70;;
58918;SDS011;44704;50.122;19.932;2022-11-25T08:44:09;122.20;;;53.20;;
58918;SDS011;44704;50.122;19.932;2022-11-25T08:46:39;126.00;;;55.20;;
58918;SDS011;44704;50.122;19.932;2022-11-25T08:49:06;130.10;;;53.00;;
58918;SDS011;44704;50.122;19.932;2022-11-25T08:54:04;135.00;;;54.00;;
58918;SDS011;44704;50.122;19.932;2022-11-25T08:56:32;132.20;;;50.90;;
58918;SDS011;44704;50.122;19.932;2022-11-25T08:58:59;128.50;;;53.70;;
58918;SDS011;44704;50.122;19.932;2022-11-25T09:01:26;135.30;;;54.20;;
58918;SDS011;44704;50.122;19.932;2022-11-25T09:03:55;129.80;;;54.30;;
58918;SDS011;44704;50.122;19.932;2022-11-25T09:06:23;118.80;;;50.00;;
58918;SDS011;44704;50.122;19.932;2022-11-25T09:08:55;119.60;;;49.80;;
58918;SDS011;44704;50.122;19.932;2022-11-25T09:11:24;134.40;;;56.00;;
58918;SDS011;44704;50.122;19.932;2022-11-25T09:13:51;126.40;;;49.70;;
58918;SDS011;44704;50.122;19.932;2022-11-25T09:16:19;131.10;;;53.40;;
58918;SDS011;44704;50.122;19.932;2022-11-25T09:18:47;132.20;;;53.50;;
58918;SDS011;44704;50.122;19.932;2022-11-25T09:21:14;120.90;;;51.00;;
58918;SDS011;44704;50.122;19.932;2022-11-25T09:23:43;129.50;;;52.40;;
58918;SDS011;44704;50.122;19.932;2022-11-25T09:26:19;137.70;;;51.20;;
58918;SDS011;44704;50.122;19.932;2022-11-25T09:28:48;128.00;;;54.10;;
58918;SDS011;44704;50.122;19.932;2022-11-25T09:31:15;120.60;;;51.60;;
58918;SDS011;44704;50.122;19.932;2022-11-25T09:33:43;113.20;;;53.50;;
58918;SDS011;44704;50.122;19.932;2022-11-25T09:36:11;123.00;;;52.40;;
58918;SDS011;44704;50.122;19.932;2022-11-25T09:38:39;126.30;;;51.10;;
58918;SDS011;44704;50.122;19.932;2022-11-25T09:44:20;119.10;;;50.00;;
58918;SDS011;44704;50.122;19.932;2022-11-25T09:53:11;116.60;;;52.90;;
58918;SDS011;44704;50.122;19.932;2022-11-25T09:56:01;119.30;;;52.10;;
58918;SDS011;44704;50.122;19.932;2022-11-25T09:58:40;119.50;;;52.90;;
58918;SDS011;44704;50.122;19.932;2022-11-25T10:01:16;114.00;;;52.60;;
58918;SDS011;44704;50.122;19.932;2022-11-25T10:03:52;109.80;;;51.00;;
58918;SDS011;44704;50.122;19.932;2022-11-25T10:06:37;117.60;;;51.70;;
58918;SDS011;44704;50.122;19.932;2022-11-25T10:09:14;121.30;;;54.20;;
58918;SDS011;44704;50.122;19.932;2022-11-25T10:11:49;123.20;;;53.20;;
58918;SDS011;44704;50.122;19.932;2022-11-25T10:14:25;114.00;;;51.70;;
58918;SDS011;44704;50.122;19.932;2022-11-25T10:16:57;119.50;;;52.20;;
58918;SDS011;44704;50.122;19.932;2022-11-25T10:24:55;121.10;;;53.80;;
58918;SDS011;44704;50.122;19.932;2022-11-25T10:27:44;117.40;;;55.50;;
58918;SDS011;44704;50.122;19.932;2022-11-25T10:32:51;124.10;;;58.10;;
58918;SDS011;44704;50.122;19.932;2022-11-25T10:35:34;111.70;;;51.70;;
58918;SDS011;44704;50.122;19.932;2022-11-25T10:41:29;111.50;;;51.80;;
58918;SDS011;44704;50.122;19.932;2022-11-25T10:43:58;115.20;;;50.30;;
58918;SDS011;44704;50.122;19.932;2022-11-25T10:46:31;120.40;;;53.10;;
58918;SDS011;44704;50.122;19.932;2022-11-25T10:49:06;128.90;;;56.20;;
58918;SDS011;44704;50.122;19.932;2022-11-25T10:51:45;122.90;;;55.10;;
58918;SDS011;44704;50.122;19.932;2022-11-25T10:54:17;117.70;;;55.80;;
58918;SDS011;44704;50.122;19.932;2022-11-25T10:59:31;118.10;;;53.00;;
58918;SDS011;44704;50.122;19.932;2022-11-25T11:07:24;125.90;;;54.90;;
58918;SDS011;44704;50.122;19.932;2022-11-25T11:10:06;124.10;;;53.90;;
58918;SDS011;44704;50.122;19.932;2022-11-25T11:12:43;119.30;;;53.40;;
58918;SDS011;44704;50.122;19.932;2022-11-25T11:20:54;133.90;;;54.70;;
58918;SDS011;44704;50.122;19.932;2022-11-25T11:23:23;121.40;;;53.70;;
58918;SDS011;44704;50.122;19.932;2022-11-25T11:31:01;126.00;;;54.40;;
58918;SDS011;44704;50.122;19.932;2022-11-25T11:33:40;118.40;;;54.00;;
58918;SDS011;44704;50.122;19.932;2022-11-25T11:39:22;117.60;;;55.10;;
58918;SDS011;44704;50.122;19.932;2022-11-25T11:50:22;123.70;;;57.70;;
58918;SDS011;44704;50.122;19.932;2022-11-25T11:52:55;123.20;;;56.30;;
58918;SDS011;44704;50.122;19.932;2022-11-25T11:58:21;115.20;;;54.50;;
58918;SDS011;44704;50.122;19.932;2022-11-25T12:03:25;114.80;;;52.90;;
58918;SDS011;44704;50.122;19.932;2022-11-25T12:05:55;112.10;;;53.10;;
58918;SDS011;44704;50.122;19.932;2022-11-25T12:11:09;133.10;;;58.90;;
58918;SDS011;44704;50.122;19.932;2022-11-25T12:13:42;119.60;;;55.00;;
58918;SDS011;44704;50.122;19.932;2022-11-25T12:16:22;119.20;;;54.40;;
58918;SDS011;44704;50.122;19.932;2022-11-25T12:27:05;103.60;;;51.30;;
58918;SDS011;44704;50.122;19.932;2022-11-25T12:29:52;114.20;;;51.80;;
58918;SDS011;44704;50.122;19.932;2022-11-25T12:40:35;96.10;;;44.70;;
58918;SDS011;44704;50.122;19.932;2022-11-25T12:43:18;109.80;;;47.70;;
58918;SDS011;44704;50.122;19.932;2022-11-25T12:45:54;105.80;;;49.20;;
58918;SDS011;44704;50.122;19.932;2022-11-25T12:48:31;108.00;;;48.20;;
58918;SDS011;44704;50.122;19.932;2022-11-25T12:51:15;102.90;;;45.70;;
58918;SDS011;44704;50.122;19.932;2022-11-25T12:56:21;106.60;;;49.30;;
58918;SDS011;44704;50.122;19.932;2022-11-25T13:02:20;91.60;;;44.00;;
58918;SDS011;44704;50.122;19.932;2022-11-25T13:11:47;115.30;;;51.70;;
58918;SDS011;44704;50.122;19.932;2022-11-25T13:17:19;106.60;;;51.30;;
58918;SDS011;44704;50.122;19.932;2022-11-25T13:19:48;103.40;;;47.50;;
58918;SDS011;44704;50.122;19.932;2022-11-25T13:24:56;104.20;;;46.50;;
58918;SDS011;44704;50.122;19.932;2022-11-25T13:27:54;93.10;;;43.00;;
58918;SDS011;44704;50.122;19.932;2022-11-25T13:35:45;101.50;;;46.10;;
58918;SDS011;44704;50.122;19.932;2022-11-25T13:38:35;94.80;;;45.60;;
58918;SDS011;44704;50.122;19.932;2022-11-25T13:41:19;96.50;;;45.90;;
58918;SDS011;44704;50.122;19.932;2022-11-25T13:51:52;108.50;;;48.70;;
58918;SDS011;44704;50.122;19.932;2022-11-25T13:54:24;103.90;;;49.60;;
58918;SDS011;44704;50.122;19.932;2022-11-25T13:57:00;103.90;;;49.70;;
58918;SDS011;44704;50.122;19.932;2022-11-25T14:10:21;129.70;;;58.50;;
58918;SDS011;44704;50.122;19.932;2022-11-25T14:15:59;130.10;;;59.30;;
58918;SDS011;44704;50.122;19.932;2022-11-25T14:18:41;138.70;;;60.10;;
58918;SDS011;44704;50.122;19.932;2022-11-25T14:26:42;150.70;;;65.10;;
58918;SDS011;44704;50.122;19.932;2022-11-25T14:29:12;132.20;;;61.50;;
58918;SDS011;44704;50.122;19.932;2022-11-25T14:32:02;128.60;;;59.90;;
58918;SDS011;44704;50.122;19.932;2022-11-25T14:34:51;126.30;;;59.00;;
58918;SDS011;44704;50.122;19.932;2022-11-25T14:37:25;133.70;;;59.10;;
58918;SDS011;44704;50.122;19.932;2022-11-25T14:40:16;124.10;;;56.80;;
58918;SDS011;44704;50.122;19.932;2022-11-25T14:42:47;121.20;;;55.90;;
58918;SDS011;44704;50.122;19.932;2022-11-25T14:45:25;124.90;;;58.00;;
58918;SDS011;44704;50.122;19.932;2022-11-25T14:48:11;129.10;;;59.80;;
58918;SDS011;44704;50.122;19.932;2022-11-25T14:50:38;119.80;;;55.40;;
58918;SDS011;44704;50.122;19.932;2022-11-25T14:53:07;117.00;;;53.00;;
58918;SDS011;44704;50.122;19.932;2022-11-25T14:58:03;133.10;;;60.60;;
58918;SDS011;44704;50.122;19.932;2022-11-25T15:00:30;131.40;;;58.40;;
58918;SDS011;44704;50.122;19.932;2022-11-25T15:02:58;141.40;;;64.70;;
58918;SDS011;44704;50.122;19.932;2022-11-25T15:05:32;152.10;;;68.60;;
58918;SDS011;44704;50.122;19.932;2022-11-25T15:08:12;163.90;;;71.10;;
58918;SDS011;44704;50.122;19.932;2022-11-25T15:10:42;158.20;;;69.90;;
58918;SDS011;44704;50.122;19.932;2022-11-25T15:15:57;156.80;;;66.90;;
58918;SDS011;44704;50.122;19.932;2022-11-25T15:18:32;149.20;;;65.20;;
58918;SDS011;44704;50.122;19.932;2022-11-25T15:21:02;152.50;;;65.10;;
58918;SDS011;44704;50.122;19.932;2022-11-25T15:23:31;149.30;;;64.90;;
58918;SDS011;44704;50.122;19.932;2022-11-25T15:26:03;144.30;;;62.90;;
58918;SDS011;44704;50.122;19.932;2022-11-25T15:28:40;147.30;;;61.50;;
58918;SDS011;44704;50.122;19.932;2022-11-25T15:31:09;132.40;;;58.00;;
58918;SDS011;44704;50.122;19.932;2022-11-25T15:33:38;144.30;;;62.00;;
58918;SDS011;44704;50.122;19.932;2022-11-25T15:36:07;142.00;;;58.10;;
58918;SDS011;44704;50.122;19.932;2022-11-25T15:38:35;146.20;;;60.30;;
58918;SDS011;44704;50.122;19.932;2022-11-25T15:41:51;132.00;;;56.20;;
58918;SDS011;44704;50.122;19.932;2022-11-25T15:44:02;142.60;;;58.30;;
58918;SDS011;44704;50.122;19.932;2022-11-25T15:46:31;142.30;;;58.80;;
58918;SDS011;44704;50.122;19.932;2022-11-25T15:49:02;139.30;;;58.90;;
58918;SDS011;44704;50.122;19.932;2022-11-25T15:51:42;141.00;;;59.10;;
58918;SDS011;44704;50.122;19.932;2022-11-25T15:54:20;150.80;;;60.10;;
58918;SDS011;44704;50.122;19.932;2022-11-25T15:57:01;130.60;;;56.00;;
58918;SDS011;44704;50.122;19.932;2022-11-25T16:10:20;133.20;;;57.10;;
58918;SDS011;44704;50.122;19.932;2022-11-25T16:18:33;131.50;;;57.90;;
58918;SDS011;44704;50.122;19.932;2022-11-25T16:23:36;130.40;;;56.70;;
58918;SDS011;44704;50.122;19.932;2022-11-25T16:28:41;129.80;;;55.40;;
58918;SDS011;44704;50.122;19.932;2022-11-25T16:31:17;125.60;;;57.50;;
58918;SDS011;44704;50.122;19.932;2022-11-25T16:33:44;139.90;;;58.30;;
58918;SDS011;44704;50.122;19.932;2022-11-25T16:36:11;120.20;;;53.60;;
58918;SDS011;44704;50.122;19.932;2022-11-25T16:38:38;133.70;;;58.70;;
58918;SDS011;44704;50.122;19.932;2022-11-25T16:41:24;143.00;;;61.50;;
58918;SDS011;44704;50.122;19.932;2022-11-25T16:43:52;127.70;;;58.50;;
58918;SDS011;44704;50.122;19.932;2022-11-25T16:46:19;137.30;;;61.10;;
58918;SDS011;44704;50.122;19.932;2022-11-25T16:48:46;135.40;;;59.70;;
58918;SDS011;44704;50.122;19.932;2022-11-25T16:51:14;141.50;;;61.30;;
58918;SDS011;44704;50.122;19.932;2022-11-25T16:53:43;124.00;;;57.40;;
58918;SDS011;44704;50.122;19.932;2022-11-25T16:56:14;115.50;;;53.20;;
58918;SDS011;44704;50.122;19.932;2022-11-25T16:58:51;121.30;;;56.50;;
58918;SDS011;44704;50.122;19.932;2022-11-25T17:01:18;132.60;;;57.40;;
58918;SDS011;44704;50.122;19.932;2022-11-25T17:03:48;136.70;;;59.80;;
58918;SDS011;44704;50.122;19.932;2022-11-25T17:06:16;113.60;;;51.90;;
58918;SDS011;44704;50.122;19.932;2022-11-25T17:08:46;112.70;;;54.10;;
58918;SDS011;44704;50.122;19.932;2022-11-25T17:11:17;133.60;;;57.10;;
58918;SDS011;44704;50.122;19.932;2022-11-25T17:13:47;136.80;;;58.20;;
58918;SDS011;44704;50.122;19.932;2022-11-25T17:16:22;130.20;;;58.80;;
58918;SDS011;44704;50.122;19.932;2022-11-25T17:18:52;125.80;;;57.50;;